sensor_id;sensor_type;location;lat;lon;timestamp;temperature;humidity
3727;DHT22;1879;45.876;12.300;2022-09-30T00:00:38;14.10;99.90
3727;DHT22;1879;45.876;12.300;2022-09-30T00:03:05;14.10;99.90
3727;DHT22;1879;45.876;12.300;2022-09-30T00:05:32;14.00;99.90
3727;DHT22;1879;45.876;12.300;2022-09-30T00:07:59;14.00;99.90
3727;DHT22;1879;45.876;12.300;2022-09-30T00:10:26;14.00;99.90
3727;DHT22;1879;45.876;12.300;2022-09-30T00:12:53;14.00;99.90
3727;DHT22;1879;45.876;12.300;2022-09-30T00:15:22;14.00;99.90
3727;DHT22;1879;45.876;12.300;2022-09-30T00:17:49;14.00;99.90
3727;DHT22;1879;45.876;12.300;2022-09-30T00:20:16;14.10;99.90
3727;DHT22;1879;45.876;12.300;2022-09-30T00:22:44;14.20;99.90
3727;DHT22;1879;45.876;12.300;2022-09-30T00:25:11;14.10;99.90
3727;DHT22;1879;45.876;12.300;2022-09-30T00:27:38;14.10;99.90
3727;DHT22;1879;45.876;12.300;2022-09-30T00:30:05;14.10;99.90
3727;DHT22;1879;45.876;12.300;2022-09-30T00:32:34;14.00;99.90
3727;DHT22;1879;45.876;12.300;2022-09-30T00:35:01;14.10;99.90
3727;DHT22;1879;45.876;12.300;2022-09-30T00:37:28;14.10;99.90
3727;DHT22;1879;45.876;12.300;2022-09-30T00:39:55;14.10;99.90
3727;DHT22;1879;45.876;12.300;2022-09-30T00:42:23;14.10;99.90
3727;DHT22;1879;45.876;12.300;2022-09-30T00:44:55;14.20;99.90
3727;DHT22;1879;45.876;12.300;2022-09-30T00:50:28;14.30;99.90
3727;DHT22;1879;45.876;12.300;2022-09-30T00:53:05;14.30;99.90
3727;DHT22;1879;45.876;12.300;2022-09-30T00:55:38;14.30;99.90
3727;DHT22;1879;45.876;12.300;2022-09-30T00:58:09;14.20;99.90
3727;DHT22;1879;45.876;12.300;2022-09-30T01:00:37;14.30;99.90
3727;DHT22;1879;45.876;12.300;2022-09-30T01:03:05;14.20;99.90
3727;DHT22;1879;45.876;12.300;2022-09-30T01:05:34;14.20;99.90
3727;DHT22;1879;45.876;12.300;2022-09-30T01:08:05;14.20;99.90
3727;DHT22;1879;45.876;12.300;2022-09-30T01:10:33;14.20;99.90
3727;DHT22;1879;45.876;12.300;2022-09-30T01:13:00;14.20;99.90
3727;DHT22;1879;45.876;12.300;2022-09-30T01:15:40;14.20;99.90
3727;DHT22;1879;45.876;12.300;2022-09-30T01:18:12;14.20;99.90
3727;DHT22;1879;45.876;12.300;2022-09-30T01:21:00;14.20;99.90
3727;DHT22;1879;45.876;12.300;2022-09-30T01:23:51;14.20;99.90
3727;DHT22;1879;45.876;12.300;2022-09-30T01:26:45;14.30;99.90
3727;DHT22;1879;45.876;12.300;2022-09-30T01:32:16;14.20;99.90
3727;DHT22;1879;45.876;12.300;2022-09-30T01:34:57;14.10;99.90
3727;DHT22;1879;45.876;12.300;2022-09-30T01:37:38;14.10;99.90
3727;DHT22;1879;45.876;12.300;2022-09-30T01:40:12;14.20;99.90
3727;DHT22;1879;45.876;12.300;2022-09-30T01:42:53;14.20;99.90
3727;DHT22;1879;45.876;12.300;2022-09-30T01:45:30;14.20;99.90
3727;DHT22;1879;45.876;12.300;2022-09-30T01:48:02;14.20;99.90
3727;DHT22;1879;45.876;12.300;2022-09-30T01:50:38;14.20;99.90
3727;DHT22;1879;45.876;12.300;2022-09-30T01:53:11;14.20;99.90
3727;DHT22;1879;45.876;12.300;2022-09-30T01:55:46;14.20;99.90
3727;DHT22;1879;45.876;12.300;2022-09-30T01:58:20;14.20;99.90
3727;DHT22;1879;45.876;12.300;2022-09-30T02:00:53;14.20;99.90
3727;DHT22;1879;45.876;12.300;2022-09-30T02:03:25;14.30;99.90
3727;DHT22;1879;45.876;12.300;2022-09-30T02:05:59;14.30;99.90
3727;DHT22;1879;45.876;12.300;2022-09-30T02:08:31;14.30;99.90
3727;DHT22;1879;45.876;12.300;2022-09-30T02:11:03;14.30;99.90
3727;DHT22;1879;45.876;12.300;2022-09-30T02:13:35;14.30;99.90
3727;DHT22;1879;45.876;12.300;2022-09-30T02:16:06;14.30;99.90
3727;DHT22;1879;45.876;12.300;2022-09-30T02:18:42;14.40;99.90
3727;DHT22;1879;45.876;12.300;2022-09-30T02:21:14;14.40;99.90
3727;DHT22;1879;45.876;12.300;2022-09-30T02:23:45;14.40;99.90
3727;DHT22;1879;45.876;12.300;2022-09-30T02:26:15;14.40;99.90
3727;DHT22;1879;45.876;12.300;2022-09-30T02:28:46;14.50;99.90
3727;DHT22;1879;45.876;12.300;2022-09-30T02:31:17;14.50;99.90
3727;DHT22;1879;45.876;12.300;2022-09-30T02:33:51;14.50;99.90
3727;DHT22;1879;45.876;12.300;2022-09-30T02:36:24;14.50;99.90
3727;DHT22;1879;45.876;12.300;2022-09-30T02:38:58;14.60;99.90
3727;DHT22;1879;45.876;12.300;2022-09-30T02:41:28;14.60;99.90
3727;DHT22;1879;45.876;12.300;2022-09-30T02:43:57;14.60;99.90
3727;DHT22;1879;45.876;12.300;2022-09-30T02:46:33;14.60;99.90
3727;DHT22;1879;45.876;12.300;2022-09-30T02:49:07;14.60;99.90
3727;DHT22;1879;45.876;12.300;2022-09-30T02:51:44;14.60;99.90
3727;DHT22;1879;45.876;12.300;2022-09-30T02:54:19;14.60;99.90
3727;DHT22;1879;45.876;12.300;2022-09-30T02:56:54;14.60;99.90
3727;DHT22;1879;45.876;12.300;2022-09-30T02:59:23;14.70;99.90
3727;DHT22;1879;45.876;12.300;2022-09-30T03:01:50;14.60;99.90
3727;DHT22;1879;45.876;12.300;2022-09-30T03:04:21;14.60;99.90
3727;DHT22;1879;45.876;12.300;2022-09-30T03:06:49;14.60;99.90
3727;DHT22;1879;45.876;12.300;2022-09-30T03:09:16;14.60;99.90
3727;DHT22;1879;45.876;12.300;2022-09-30T03:11:44;14.60;99.90
3727;DHT22;1879;45.876;12.300;2022-09-30T03:14:33;14.60;99.90
3727;DHT22;1879;45.876;12.300;2022-09-30T03:17:26;14.50;99.90
3727;DHT22;1879;45.876;12.300;2022-09-30T03:20:28;14.50;99.90
3727;DHT22;1879;45.876;12.300;2022-09-30T03:23:14;14.50;99.90
3727;DHT22;1879;45.876;12.300;2022-09-30T03:25:52;14.40;99.90
3727;DHT22;1879;45.876;12.300;2022-09-30T03:28:26;14.40;99.90
3727;DHT22;1879;45.876;12.300;2022-09-30T03:31:02;14.40;99.90
3727;DHT22;1879;45.876;12.300;2022-09-30T03:33:41;14.30;99.90
3727;DHT22;1879;45.876;12.300;2022-09-30T03:36:24;14.20;99.90
3727;DHT22;1879;45.876;12.300;2022-09-30T03:38:59;14.20;99.90
3727;DHT22;1879;45.876;12.300;2022-09-30T03:41:33;14.30;99.90
3727;DHT22;1879;45.876;12.300;2022-09-30T03:44:08;14.30;99.90
3727;DHT22;1879;45.876;12.300;2022-09-30T03:46:41;14.40;99.90
3727;DHT22;1879;45.876;12.300;2022-09-30T03:49:11;14.40;99.90
3727;DHT22;1879;45.876;12.300;2022-09-30T03:51:41;14.40;99.90
3727;DHT22;1879;45.876;12.300;2022-09-30T03:54:10;14.40;99.90
3727;DHT22;1879;45.876;12.300;2022-09-30T03:56:38;14.40;99.90
3727;DHT22;1879;45.876;12.300;2022-09-30T03:59:10;14.50;99.90
3727;DHT22;1879;45.876;12.300;2022-09-30T04:01:38;14.50;99.90
3727;DHT22;1879;45.876;12.300;2022-09-30T04:04:05;14.50;99.90
3727;DHT22;1879;45.876;12.300;2022-09-30T04:06:32;14.50;99.90
3727;DHT22;1879;45.876;12.300;2022-09-30T04:09:01;14.60;99.90
3727;DHT22;1879;45.876;12.300;2022-09-30T04:11:28;14.60;99.90
3727;DHT22;1879;45.876;12.300;2022-09-30T04:13:55;14.60;99.90
3727;DHT22;1879;45.876;12.300;2022-09-30T04:16:22;14.50;99.90
3727;DHT22;1879;45.876;12.300;2022-09-30T04:18:49;14.50;99.90
3727;DHT22;1879;45.876;12.300;2022-09-30T04:21:17;14.50;99.90
3727;DHT22;1879;45.876;12.300;2022-09-30T04:23:43;14.40;99.90
3727;DHT22;1879;45.876;12.300;2022-09-30T04:26:14;14.40;99.90
3727;DHT22;1879;45.876;12.300;2022-09-30T04:28:41;14.50;99.90
3727;DHT22;1879;45.876;12.300;2022-09-30T04:31:09;14.50;99.90
3727;DHT22;1879;45.876;12.300;2022-09-30T04:33:37;14.60;99.90
3727;DHT22;1879;45.876;12.300;2022-09-30T04:36:05;14.50;99.90
3727;DHT22;1879;45.876;12.300;2022-09-30T04:38:32;14.50;99.90
3727;DHT22;1879;45.876;12.300;2022-09-30T04:41:01;14.50;99.90
3727;DHT22;1879;45.876;12.300;2022-09-30T04:43:30;14.50;99.90
3727;DHT22;1879;45.876;12.300;2022-09-30T04:45:57;14.50;99.90
3727;DHT22;1879;45.876;12.300;2022-09-30T04:48:24;14.50;99.90
3727;DHT22;1879;45.876;12.300;2022-09-30T04:50:52;14.60;99.90
3727;DHT22;1879;45.876;12.300;2022-09-30T04:53:19;14.60;99.90
3727;DHT22;1879;45.876;12.300;2022-09-30T04:55:46;14.60;99.90
3727;DHT22;1879;45.876;12.300;2022-09-30T04:58:13;14.60;99.90
3727;DHT22;1879;45.876;12.300;2022-09-30T05:00:42;14.60;99.90
3727;DHT22;1879;45.876;12.300;2022-09-30T05:03:09;14.60;99.90
3727;DHT22;1879;45.876;12.300;2022-09-30T05:05:36;14.60;99.90
3727;DHT22;1879;45.876;12.300;2022-09-30T05:08:04;14.60;99.90
3727;DHT22;1879;45.876;12.300;2022-09-30T05:10:31;14.50;99.90
3727;DHT22;1879;45.876;12.300;2022-09-30T05:12:58;14.50;99.90
3727;DHT22;1879;45.876;12.300;2022-09-30T05:15:25;14.50;99.90
3727;DHT22;1879;45.876;12.300;2022-09-30T05:17:54;14.40;99.90
3727;DHT22;1879;45.876;12.300;2022-09-30T05:20:21;14.40;99.90
3727;DHT22;1879;45.876;12.300;2022-09-30T05:22:53;14.40;99.90
3727;DHT22;1879;45.876;12.300;2022-09-30T05:25:20;14.40;99.90
3727;DHT22;1879;45.876;12.300;2022-09-30T05:27:48;14.40;99.90
3727;DHT22;1879;45.876;12.300;2022-09-30T05:30:15;14.40;99.90
3727;DHT22;1879;45.876;12.300;2022-09-30T05:32:42;14.40;99.90
3727;DHT22;1879;45.876;12.300;2022-09-30T05:35:10;14.40;99.90
3727;DHT22;1879;45.876;12.300;2022-09-30T05:37:37;14.50;99.90
3727;DHT22;1879;45.876;12.300;2022-09-30T05:40:05;14.50;99.90
3727;DHT22;1879;45.876;12.300;2022-09-30T05:42:33;14.60;99.90
3727;DHT22;1879;45.876;12.300;2022-09-30T05:45:00;14.60;99.90
3727;DHT22;1879;45.876;12.300;2022-09-30T05:47:27;14.70;99.90
3727;DHT22;1879;45.876;12.300;2022-09-30T05:49:54;14.70;99.90
3727;DHT22;1879;45.876;12.300;2022-09-30T05:52:22;14.80;99.90
3727;DHT22;1879;45.876;12.300;2022-09-30T05:54:49;14.80;99.90
3727;DHT22;1879;45.876;12.300;2022-09-30T05:57:16;14.90;99.90
3727;DHT22;1879;45.876;12.300;2022-09-30T05:59:43;14.90;99.90
3727;DHT22;1879;45.876;12.300;2022-09-30T06:02:10;14.90;99.90
3727;DHT22;1879;45.876;12.300;2022-09-30T06:04:38;14.90;99.90
3727;DHT22;1879;45.876;12.300;2022-09-30T06:07:05;14.90;99.90
3727;DHT22;1879;45.876;12.300;2022-09-30T06:09:34;14.90;99.90
3727;DHT22;1879;45.876;12.300;2022-09-30T06:12:01;15.00;99.90
3727;DHT22;1879;45.876;12.300;2022-09-30T06:14:28;15.00;99.90
3727;DHT22;1879;45.876;12.300;2022-09-30T06:16:55;15.10;99.90
3727;DHT22;1879;45.876;12.300;2022-09-30T06:19:22;15.10;99.90
3727;DHT22;1879;45.876;12.300;2022-09-30T06:21:49;15.10;99.90
3727;DHT22;1879;45.876;12.300;2022-09-30T06:24:16;15.20;99.90
3727;DHT22;1879;45.876;12.300;2022-09-30T06:26:44;15.20;99.90
3727;DHT22;1879;45.876;12.300;2022-09-30T06:29:11;15.30;99.90
3727;DHT22;1879;45.876;12.300;2022-09-30T06:31:39;15.30;99.90
3727;DHT22;1879;45.876;12.300;2022-09-30T06:34:06;15.30;99.90
3727;DHT22;1879;45.876;12.300;2022-09-30T06:36:33;15.40;99.90
3727;DHT22;1879;45.876;12.300;2022-09-30T06:39:00;15.50;99.90
3727;DHT22;1879;45.876;12.300;2022-09-30T06:41:28;15.50;99.90
3727;DHT22;1879;45.876;12.300;2022-09-30T06:43:56;15.60;99.90
3727;DHT22;1879;45.876;12.300;2022-09-30T06:46:24;15.90;99.90
3727;DHT22;1879;45.876;12.300;2022-09-30T06:48:53;17.00;99.90
